Terminal Aerodrome Forecast
Issued by NWS Shreveport, LA

Home | Current Version | Previous Version | Text Only | Print | Product List | Glossary On
Versions: 1 2 3 4 5 6 7 8 9 10 11 12 13 14
000
FTUS44 KSHV 011500 AAB
TAFTXK
TAF AMD
KTXK 011505Z 0115/0212 19012KT 3SM BR OVC004
     FM011600 23012G20KT P6SM VCSH OVC015
      TEMPO 0116/0120 4SM SHRA BR OVC005
     FM012200 32013G22KT P6SM BKN100
     FM020300 33013G22KT P6SM SKC=

USA.gov is the U.S. government's official web portal to all federal, state and local government web resources and services.